Time;durP1;ratioP1;P1;durP2;ratioP2;P2;SDS_P1;SDS_P2;PMS_P1;PMS_P2;Temp;Humidity;BMP_temperature;BMP_pressure;BME280_temperature;BME280_humidity;BME280_pressure;Samples;Min_cycle;Max_cycle;Signal;HPM_P1;HPM_P2
2022/04/01 00:00:06;;;;;;;13.60;12.30;;;6.40;99.90;;;;;;5015160;28;20470;-84
2022/04/01 00:02:54;;;;;;;12.80;11.60;;;6.30;99.90;;;;;;5012409;28;20557;-84
2022/04/01 00:05:28;;;;;;;12.07;10.87;;;6.30;99.90;;;;;;5003549;28;20498;-86
2022/04/01 00:08:00;;;;;;;12.47;11.27;;;6.30;99.90;;;;;;5005153;28;20481;-85
2022/04/01 00:10:52;;;;;;;12.90;11.70;;;6.30;99.90;;;;;;5007201;28;20932;-86
2022/04/01 00:13:34;;;;;;;13.93;12.53;;;6.30;99.90;;;;;;5010475;28;20490;-86
2022/04/01 00:16:04;;;;;;;13.43;11.93;;;6.30;99.90;;;;;;5004586;28;20573;-86
2022/04/01 00:18:55;;;;;;;13.47;11.77;;;6.40;99.90;;;;;;5002443;28;20504;-86
2022/04/01 00:21:29;;;;;;;12.93;11.70;;;6.40;99.90;;;;;;5001537;28;20556;-87
2022/04/01 00:24:01;;;;;;;12.40;11.07;;;6.40;99.90;;;;;;4999840;28;20477;-85
2022/04/01 00:26:38;;;;;;;13.83;12.50;;;6.40;99.90;;;;;;4999290;28;20616;-85
2022/04/01 00:29:20;;;;;;;13.07;11.67;;;6.40;99.90;;;;;;4999208;28;20588;-86
2022/04/01 00:32:25;;;;;;;13.13;11.80;;;6.40;99.90;;;;;;5002542;28;20545;-83
2022/04/01 00:35:07;;;;;;;16.33;13.10;;;6.50;99.90;;;;;;4999849;28;20461;-85
2022/04/01 00:37:45;;;;;;;15.27;13.20;;;6.60;99.90;;;;;;5013676;28;21031;-86
2022/04/01 00:40:30;;;;;;;15.13;13.47;;;6.70;99.90;;;;;;5000363;28;20465;-86
2022/04/01 00:43:14;;;;;;;17.67;15.73;;;7.00;99.90;;;;;;4999497;28;20505;-85
2022/04/01 00:45:57;;;;;;;16.90;14.30;;;7.30;99.90;;;;;;4992689;28;21090;-85
2022/04/01 00:48:34;;;;;;;17.27;15.27;;;7.20;99.90;;;;;;4999808;28;20455;-85
2022/04/01 00:51:25;;;;;;;15.77;14.17;;;7.30;99.90;;;;;;4983203;28;20452;-86
2022/04/01 00:54:05;;;;;;;16.63;14.83;;;7.30;99.90;;;;;;5007623;28;20465;-82
2022/04/01 00:56:39;;;;;;;17.73;14.43;;;7.00;99.90;;;;;;4998132;28;20536;-83
2022/04/01 00:59:08;;;;;;;15.53;13.80;;;6.90;99.90;;;;;;4998698;28;20467;-85
2022/04/01 01:01:57;;;;;;;15.73;14.13;;;7.10;99.90;;;;;;4999594;28;20553;-83
2022/04/01 01:04:32;;;;;;;13.90;12.20;;;7.10;99.90;;;;;;5002395;28;20454;-86
2022/04/01 01:07:23;;;;;;;14.47;12.20;;;7.10;99.90;;;;;;4999782;28;20474;-83
2022/04/01 01:10:00;;;;;;;14.23;12.60;;;7.00;99.90;;;;;;4999612;28;20462;-87
2022/04/01 01:12:36;;;;;;;13.70;12.00;;;6.80;99.90;;;;;;5003822;28;20454;-87
2022/04/01 01:15:32;;;;;;;11.70;10.60;;;6.80;99.90;;;;;;4999705;28;20482;-84
2022/04/01 01:18:18;;;;;;;11.80;10.70;;;6.80;99.90;;;;;;5014244;28;21708;-84
2022/04/01 01:20:57;;;;;;;16.97;10.23;;;7.10;99.90;;;;;;5012545;28;20472;-85
2022/04/01 01:23:47;;;;;;;8.50;7.80;;;7.20;99.90;;;;;;4998619;28;20488;-87
2022/04/01 01:26:24;;;;;;;9.70;8.70;;;7.10;99.90;;;;;;4998398;28;20478;-84
2022/04/01 01:29:02;;;;;;;8.07;7.37;;;7.10;99.90;;;;;;4997793;28;20497;-86
2022/04/01 01:31:32;;;;;;;8.07;7.27;;;7.00;99.90;;;;;;5002069;28;20481;-86
2022/04/01 01:34:10;;;;;;;8.00;7.40;;;7.00;99.90;;;;;;5003365;28;20490;-84
2022/04/01 01:36:51;;;;;;;7.13;6.53;;;6.90;99.90;;;;;;5015112;28;20474;-83
2022/04/01 01:39:35;;;;;;;7.53;6.90;;;6.70;99.90;;;;;;5004081;28;20474;-83
2022/04/01 01:42:23;;;;;;;6.93;6.30;;;6.70;99.90;;;;;;4995726;28;20491;-85
2022/04/01 01:44:50;;;;;;;7.47;6.87;;;6.90;99.90;;;;;;4997276;28;20466;-83
2022/04/01 01:47:26;;;;;;;7.23;6.63;;;7.00;99.90;;;;;;4999834;28;20560;-85
2022/04/01 01:56:09;;;;;;;7.40;6.80;;;6.90;99.90;;;;;;4996476;28;20824;-83
2022/04/01 01:58:43;;;;;;;6.83;6.33;;;6.90;99.90;;;;;;4994142;28;20461;-87
2022/04/01 02:01:16;;;;;;;7.27;6.67;;;6.90;99.90;;;;;;4992166;28;20450;-85
2022/04/01 02:04:01;;;;;;;7.00;6.40;;;7.00;99.90;;;;;;4993877;28;21898;-84
2022/04/01 02:06:39;;;;;;;7.60;7.00;;;6.70;99.90;;;;;;4993564;28;20473;-83
2022/04/01 02:09:25;;;;;;;6.93;6.43;;;6.80;99.90;;;;;;4998655;28;20454;-85
2022/04/01 02:12:08;;;;;;;7.27;6.67;;;6.80;99.90;;;;;;4995630;28;20446;-85
2022/04/01 02:14:49;;;;;;;6.73;6.23;;;6.70;99.90;;;;;;4999149;28;20454;-85
2022/04/01 02:17:19;;;;;;;7.03;6.40;;;6.70;99.90;;;;;;4998886;28;20789;-85
2022/04/01 02:19:59;;;;;;;7.30;6.70;;;6.90;99.90;;;;;;4997356;28;20454;-84
2022/04/01 02:22:31;;;;;;;7.57;6.97;;;6.80;99.90;;;;;;4996130;28;20541;-84
2022/04/01 02:25:13;;;;;;;7.37;6.73;;;6.80;99.90;;;;;;4995040;28;20557;-85
2022/04/01 02:27:51;;;;;;;8.27;7.60;;;6.60;99.90;;;;;;5013851;28;20524;-85
2022/04/01 02:30:35;;;;;;;6.93;6.33;;;6.60;99.90;;;;;;5000578;28;20454;-85
2022/04/01 02:33:18;;;;;;;7.37;6.77;;;6.70;99.90;;;;;;5003507;28;20459;-85
2022/04/01 02:35:52;;;;;;;7.23;6.67;;;6.80;99.90;;;;;;4997772;28;21271;-84
2022/04/01 02:38:29;;;;;;;7.50;6.90;;;6.80;99.90;;;;;;5000304;28;20462;-83
2022/04/01 02:41:16;;;;;;;6.90;6.30;;;6.60;99.90;;;;;;4999602;28;20905;-86
2022/04/01 02:44:08;;;;;;;6.93;6.43;;;6.30;99.90;;;;;;5009379;28;20571;-86
2022/04/01 02:46:59;;;;;;;7.37;6.77;;;6.40;99.90;;;;;;4997195;28;20504;-84
2022/04/01 02:50:15;;;;;;;6.87;6.30;;;6.40;99.90;;;;;;4996146;28;20461;-85
2022/04/01 02:52:59;;;;;;;6.70;6.20;;;6.40;99.90;;;;;;4981952;28;20948;-85
2022/04/01 02:55:52;;;;;;;7.00;6.37;;;6.60;99.90;;;;;;5014832;28;20473;-84
2022/04/01 02:58:35;;;;;;;7.10;6.53;;;6.60;99.90;;;;;;5005234;28;20759;-84
2022/04/01 03:01:43;;;;;;;7.57;6.87;;;6.50;99.90;;;;;;5000707;28;20978;-84
2022/04/01 03:04:16;;;;;;;7.57;6.97;;;6.50;99.90;;;;;;4998199;28;20608;-85
2022/04/01 03:06:54;;;;;;;7.93;7.23;;;6.50;99.90;;;;;;5033401;23;20512;-83
2022/04/01 03:09:25;;;;;;;6.80;6.10;;;6.50;99.90;;;;;;4955518;28;20515;-85
2022/04/01 03:12:08;;;;;;;7.00;6.33;;;6.50;99.90;;;;;;4964300;28;20460;-84
2022/04/01 03:15:02;;;;;;;7.83;7.23;;;6.40;99.90;;;;;;4960685;28;20535;-86
2022/04/01 03:20:29;;;;;;;7.53;6.83;;;6.50;99.90;;;;;;4931817;28;20817;-86
2022/04/01 03:23:00;;;;;;;7.00;6.40;;;6.40;99.90;;;;;;4938399;28;20496;-82
2022/04/01 03:25:42;;;;;;;6.67;6.17;;;6.50;99.90;;;;;;4935450;28;20489;-86
2022/04/01 03:28:17;;;;;;;7.13;6.53;;;6.50;99.90;;;;;;4935818;28;20461;-85
2022/04/01 03:30:56;;;;;;;7.33;6.13;;;6.30;99.90;;;;;;4939368;29;20552;-85
2022/04/01 03:33:34;;;;;;;6.80;6.20;;;6.40;99.90;;;;;;4938606;28;21055;-86
2022/04/01 03:36:24;;;;;;;7.37;6.07;;;6.40;99.90;;;;;;4923035;28;20810;-82
2022/04/01 03:38:57;;;;;;;6.43;5.93;;;6.40;99.90;;;;;;4956359;28;20473;-84
2022/04/01 03:41:46;;;;;;;6.60;6.00;;;6.50;99.60;;;;;;4936587;28;20478;-85
2022/04/01 03:44:25;;;;;;;6.83;6.17;;;6.30;99.70;;;;;;4952380;28;20557;-83
2022/04/01 03:47:16;;;;;;;6.03;5.53;;;6.30;99.90;;;;;;4940395;28;20966;-83
2022/04/01 03:50:07;;;;;;;7.30;6.70;;;6.40;99.80;;;;;;4942517;28;20513;-83
2022/04/01 03:52:51;;;;;;;5.93;5.43;;;6.30;99.10;;;;;;4950136;28;20865;-83
2022/04/01 03:55:26;;;;;;;7.50;6.10;;;6.20;99.30;;;;;;4952035;28;20493;-85
2022/04/01 03:58:00;;;;;;;6.50;5.90;;;6.30;99.90;;;;;;4945760;28;20457;-83
2022/04/01 04:00:29;;;;;;;5.90;5.33;;;6.30;99.90;;;;;;4933729;28;20488;-82
2022/04/01 04:02:58;;;;;;;7.20;6.50;;;6.20;99.70;;;;;;4936502;28;20556;-85
2022/04/01 04:06:09;;;;;;;6.30;5.70;;;6.30;99.50;;;;;;4950670;28;20505;-83
2022/04/01 04:08:43;;;;;;;6.00;5.50;;;6.20;99.40;;;;;;4949398;28;20486;-83
2022/04/01 04:11:27;;;;;;;6.37;5.80;;;6.10;99.50;;;;;;4950853;28;20453;-84
2022/04/01 04:14:06;;;;;;;6.10;5.60;;;6.10;99.80;;;;;;4951907;28;20556;-86
2022/04/01 04:16:47;;;;;;;6.30;5.70;;;6.20;99.90;;;;;;4938476;28;20555;-83
2022/04/01 04:19:13;;;;;;;6.60;6.00;;;6.40;99.80;;;;;;4941650;28;20560;-84
2022/04/01 04:22:07;;;;;;;8.53;6.90;;;6.30;99.20;;;;;;4947053;29;21350;-84
2022/04/01 04:24:49;;;;;;;7.60;6.90;;;6.30;98.80;;;;;;4956839;28;20492;-86
2022/04/01 04:27:17;;;;;;;9.53;8.63;;;6.20;99.40;;;;;;4956315;28;20461;-86
2022/04/01 04:29:49;;;;;;;6.70;6.10;;;6.00;99.90;;;;;;4960266;28;20499;-85
2022/04/01 04:32:51;;;;;;;6.83;6.27;;;5.90;99.90;;;;;;4940098;29;21168;-84
2022/04/01 04:35:21;;;;;;;7.73;7.03;;;6.00;99.90;;;;;;4941013;28;20491;-83
2022/04/01 04:37:50;;;;;;;6.77;6.07;;;6.00;99.40;;;;;;4959363;28;20452;-84
2022/04/01 04:40:19;;;;;;;6.50;6.00;;;6.00;99.70;;;;;;4942791;28;22489;-84
2022/04/01 04:42:51;;;;;;;5.53;4.90;;;6.00;98.90;;;;;;4940528;28;20476;-83
2022/04/01 04:45:19;;;;;;;6.90;6.30;;;5.90;98.60;;;;;;4949705;28;20481;-85
2022/04/01 04:50:53;;;;;;;5.70;5.20;;;5.80;98.30;;;;;;4917863;28;20480;-85
2022/04/01 04:53:35;;;;;;;6.40;5.90;;;5.70;98.90;;;;;;4936474;28;20484;-86
2022/04/01 04:56:14;;;;;;;6.60;6.00;;;5.80;98.80;;;;;;4939820;28;20560;-86
2022/04/01 04:58:45;;;;;;;5.30;4.90;;;5.80;98.60;;;;;;4939673;28;20556;-84
2022/04/01 05:01:44;;;;;;;7.00;6.00;;;5.90;98.90;;;;;;4941936;28;20444;-86
2022/04/01 05:04:25;;;;;;;6.33;5.83;;;5.70;98.70;;;;;;4948936;28;20547;-84
2022/04/01 05:07:38;;;;;;;6.47;5.80;;;5.70;98.70;;;;;;4955689;28;20900;-84
2022/04/01 05:10:57;;;;;;;11.53;6.90;;;5.80;98.90;;;;;;4945099;28;20461;-82
2022/04/01 05:13:59;;;;;;;11.33;6.80;;;5.80;98.90;;;;;;4904418;28;20464;-85
2022/04/01 05:16:55;;;;;;;7.43;6.50;;;5.90;98.70;;;;;;4942451;28;20485;-82
2022/04/01 05:19:38;;;;;;;8.10;6.07;;;5.80;98.50;;;;;;4941250;28;20469;-84
2022/04/01 05:22:15;;;;;;;6.83;6.23;;;5.70;98.90;;;;;;4958341;28;21294;-84
2022/04/01 05:25:03;;;;;;;5.97;5.53;;;5.70;99.00;;;;;;4959847;28;21016;-84
2022/04/01 05:27:40;;;;;;;5.97;5.43;;;5.60;99.40;;;;;;4944770;28;20467;-83
2022/04/01 05:30:14;;;;;;;6.47;5.87;;;5.70;99.10;;;;;;4956239;28;20465;-85
2022/04/01 05:33:06;;;;;;;5.90;5.33;;;5.70;98.80;;;;;;4952465;28;20449;-84
2022/04/01 05:35:37;;;;;;;6.13;5.53;;;5.80;98.30;;;;;;4939665;28;20492;-82
2022/04/01 05:38:35;;;;;;;5.50;5.00;;;5.80;97.80;;;;;;4924471;28;20564;-82
2022/04/01 05:41:10;;;;;;;6.63;6.03;;;5.70;97.90;;;;;;4914712;29;20716;-84
2022/04/01 05:43:41;;;;;;;5.57;5.10;;;5.40;98.20;;;;;;4946975;28;20481;-85
2022/04/01 05:49:24;;;;;;;7.77;5.10;;;5.50;98.80;;;;;;4946468;28;20511;-86
2022/04/01 05:51:52;;;;;;;4.60;4.20;;;5.50;98.70;;;;;;4961493;28;20460;-84
2022/04/01 05:54:32;;;;;;;5.47;5.07;;;5.60;98.70;;;;;;4943874;28;20453;-86
2022/04/01 05:57:12;;;;;;;5.67;5.17;;;5.70;98.50;;;;;;4957884;28;21249;-86
2022/04/01 06:00:05;;;;;;;5.90;5.30;;;5.80;98.10;;;;;;4966031;28;20620;-86
2022/04/01 06:02:50;;;;;;;5.73;5.20;;;5.70;98.00;;;;;;4950307;28;20445;-85
2022/04/01 06:05:48;;;;;;;5.30;4.80;;;5.60;98.40;;;;;;4938468;28;20476;-85
2022/04/01 06:08:44;;;;;;;5.30;4.80;;;5.60;98.80;;;;;;4948164;28;20612;-84
2022/04/01 06:11:46;;;;;;;;;;;;;;;;;;;;;
2022/04/01 06:14:46;;;;;;;5.63;4.60;;;5.70;98.00;;;;;;4952022;28;20468;-85
2022/04/01 06:17:54;;;;;;;5.20;4.80;;;5.50;98.30;;;;;;4892731;29;20493;-84
2022/04/01 06:20:49;;;;;;;6.10;4.37;;;5.70;98.80;;;;;;4939435;28;20627;-86
2022/04/01 06:27:22;;;;;;;5.00;4.60;;;5.80;97.80;;;;;;4894417;29;20475;-83
2022/04/01 06:30:24;;;;;;;6.27;5.67;;;5.60;98.50;;;;;;4895369;29;20451;-85
2022/04/01 06:33:48;;;;;;;5.37;4.87;;;5.80;98.20;;;;;;4897011;29;20519;-86
2022/04/01 06:37:09;;;;;;;4.80;4.40;;;5.50;98.00;;;;;;4848796;29;20501;-83
2022/04/01 06:40:18;;;;;;;4.83;4.43;;;5.70;97.80;;;;;;4896251;29;20431;-84
2022/04/01 06:42:52;;;;;;;5.33;4.83;;;5.60;97.80;;;;;;4885282;29;20455;-85
2022/04/01 06:45:42;;;;;;;5.13;4.70;;;5.70;97.90;;;;;;4891421;29;20480;-82
2022/04/01 06:48:17;;;;;;;5.27;4.77;;;5.70;97.90;;;;;;4885371;29;20452;-83
2022/04/01 06:51:21;;;;;;;5.20;4.80;;;5.50;98.30;;;;;;4898451;29;21055;-85
2022/04/01 06:54:00;;;;;;;4.90;4.50;;;5.50;97.90;;;;;;4896737;29;20472;-84
2022/04/01 06:56:36;;;;;;;4.80;4.40;;;5.50;98.00;;;;;;4898343;29;20482;-81
2022/04/01 06:59:19;;;;;;;12.80;5.60;;;5.50;98.00;;;;;;4899199;29;20534;-85
2022/04/01 07:02:29;;;;;;;5.20;4.70;;;5.70;97.40;;;;;;4902166;29;20495;-85
2022/04/01 07:05:15;;;;;;;4.73;4.33;;;5.60;97.50;;;;;;4903050;29;21821;-85
2022/04/01 07:08:00;;;;;;;;;;;;;;;;;;;;;
2022/04/01 07:10:31;;;;;;;5.17;4.43;;;5.80;97.80;;;;;;4962508;28;20460;-83
2022/04/01 07:13:21;;;;;;;4.93;4.43;;;5.80;97.30;;;;;;4963267;28;20505;-84
2022/04/01 07:15:55;;;;;;;5.10;4.70;;;5.50;97.60;;;;;;4959113;28;20507;-84
2022/04/01 07:18:40;;;;;;;4.57;4.13;;;5.70;97.90;;;;;;4971001;28;20461;-85
2022/04/01 07:21:24;;;;;;;5.17;4.77;;;5.60;97.90;;;;;;4950558;28;20460;-85
2022/04/01 07:24:08;;;;;;;5.20;4.80;;;5.40;97.90;;;;;;4949041;28;20480;-85
2022/04/01 07:27:01;;;;;;;5.00;4.60;;;5.60;97.80;;;;;;4949555;28;20488;-84
2022/04/01 07:29:42;;;;;;;4.60;4.20;;;5.60;97.60;;;;;;4952060;28;20456;-85
2022/04/01 07:32:32;;;;;;;3.87;3.67;;;5.50;97.70;;;;;;4950089;28;20453;-86
2022/04/01 07:35:30;;;;;;;4.77;4.30;;;5.60;97.50;;;;;;4961004;28;20482;-85
2022/04/01 07:38:14;;;;;;;4.40;3.80;;;5.70;97.40;;;;;;4958992;28;20477;-82
2022/04/01 07:40:49;;;;;;;4.67;4.27;;;5.70;97.10;;;;;;4947655;28;20495;-86
2022/04/01 07:43:27;;;;;;;3.70;3.40;;;5.60;96.70;;;;;;4942172;29;20472;-86
2022/04/01 07:46:07;;;;;;;4.00;3.67;;;5.60;96.30;;;;;;4956740;28;20504;-86
2022/04/01 07:48:51;;;;;;;3.87;3.57;;;5.70;96.10;;;;;;4940291;28;20591;-86
2022/04/01 07:51:24;;;;;;;4.20;3.90;;;5.60;95.70;;;;;;4953181;28;20556;-86
2022/04/01 07:54:06;;;;;;;4.10;3.50;;;5.60;95.60;;;;;;4937607;28;20473;-84
2022/04/01 07:56:50;;;;;;;3.90;3.60;;;5.60;95.80;;;;;;4937964;28;20491;-84
2022/04/01 07:59:53;;;;;;;;;;;;;;;;;;;;;
2022/04/01 08:02:54;;;;;;;3.50;3.23;;;5.70;95.60;;;;;;4946850;28;20432;-85
2022/04/01 08:06:37;;;;;;;3.93;3.63;;;5.60;95.70;;;;;;5071089;22;20572;-85
2022/04/01 08:09:26;;;;;;;3.30;3.10;;;5.50;95.60;;;;;;4970376;28;20467;-85
2022/04/01 08:12:11;;;;;;;4.23;3.47;;;5.60;95.60;;;;;;4982924;28;20475;-86
2022/04/01 08:14:50;;;;;;;4.20;3.90;;;5.80;94.40;;;;;;4983036;28;20498;-86
2022/04/01 08:17:39;;;;;;;3.53;3.23;;;5.70;94.60;;;;;;4960677;28;20468;-86
2022/04/01 08:20:21;;;;;;;3.80;3.50;;;5.80;94.80;;;;;;4965565;28;20697;-86
2022/04/01 08:22:59;;;;;;;3.63;3.10;;;5.70;94.70;;;;;;4966671;28;20452;-83
2022/04/01 08:26:07;;;;;;;4.20;3.80;;;5.70;94.70;;;;;;4966565;28;20531;-87
2022/04/01 08:28:41;;;;;;;3.97;3.60;;;5.70;94.60;;;;;;4976673;28;20558;-85
2022/04/01 08:31:37;;;;;;;4.03;3.70;;;5.80;95.00;;;;;;4982824;28;20467;-83
2022/04/01 08:34:16;;;;;;;3.93;3.60;;;5.90;94.80;;;;;;4973775;28;20552;-86
2022/04/01 08:37:53;;;;;;;3.23;2.97;;;5.90;95.10;;;;;;4976171;28;20495;-85
2022/04/01 08:45:12;;;;;;;5.10;3.60;;;5.90;93.60;;;;;;4978128;28;20470;-85
2022/04/01 08:48:26;;;;;;;3.97;3.67;;;5.90;94.20;;;;;;4962169;28;20460;-83
2022/04/01 08:51:19;;;;;;;3.73;3.43;;;6.00;94.40;;;;;;4964815;28;20702;-85
2022/04/01 08:57:57;;;;;;;3.47;3.17;;;5.90;93.60;;;;;;4964177;28;20503;-85
2022/04/01 09:00:46;;;;;;;3.70;3.40;;;5.80;94.30;;;;;;4961783;28;21013;-88
2022/04/01 09:03:28;;;;;;;3.27;3.07;;;5.80;94.20;;;;;;4953526;28;21228;-86
2022/04/01 09:06:27;;;;;;;3.50;3.20;;;5.90;94.00;;;;;;4953244;28;20515;-86
2022/04/01 09:10:04;;;;;;;3.73;3.43;;;5.90;94.10;;;;;;4963545;28;20469;-86
2022/04/01 09:16:30;;;;;;;4.50;4.10;;;5.80;94.30;;;;;;4946572;28;20502;-83
2022/04/01 09:20:02;;;;;;;4.30;4.00;;;6.20;93.80;;;;;;4945833;28;20484;-86
2022/04/01 09:22:45;;;;;;;3.20;3.00;;;5.90;93.50;;;;;;4960478;28;20468;-83
2022/04/01 09:25:26;;;;;;;4.83;4.43;;;5.90;93.70;;;;;;4947658;28;20479;-84
2022/04/01 09:28:06;;;;;;;4.23;3.93;;;5.90;93.90;;;;;;4935639;28;20997;-83
2022/04/01 09:34:48;;;;;;;4.30;4.00;;;5.90;94.50;;;;;;4950885;28;20492;-86
2022/04/01 09:37:48;;;;;;;;;;;;;;;;;;;;;
2022/04/01 09:40:53;;;;;;;4.40;4.00;;;5.80;93.40;;;;;;4888857;29;20446;-85
2022/04/01 09:43:54;;;;;;;4.40;4.10;;;5.70;93.10;;;;;;4874007;29;20476;-84
2022/04/01 09:46:59;;;;;;;4.20;3.90;;;5.70;93.80;;;;;;4884024;29;20494;-85
2022/04/01 09:50:17;;;;;;;4.13;3.73;;;5.80;94.00;;;;;;4889039;29;20452;-85
2022/04/01 09:56:55;;;;;;;4.20;3.73;;;5.90;93.70;;;;;;4890414;29;21051;-87
2022/04/01 09:59:52;;;;;;;5.47;4.97;;;5.90;93.10;;;;;;4875622;29;20508;-84
2022/04/01 10:02:54;;;;;;;5.17;3.83;;;5.90;93.30;;;;;;4903000;29;20529;-85
2022/04/01 10:06:13;;;;;;;3.37;2.97;;;5.90;93.70;;;;;;4802453;29;21030;-84
2022/04/01 10:09:35;;;;;;;4.03;3.40;;;5.80;93.20;;;;;;4810093;29;20532;-86
2022/04/01 10:13:33;;;;;;;3.90;2.97;;;5.90;92.90;;;;;;4813531;29;20475;-86
2022/04/01 10:16:48;;;;;;;3.70;3.33;;;6.00;92.70;;;;;;4745060;29;20498;-83
2022/04/01 10:20:02;;;;;;;;;;;;;;;;;;;;;
2022/04/01 10:23:11;;;;;;;;;;;;;;;;;;;;;
2022/04/01 10:26:34;;;;;;;4.83;3.40;;;5.60;93.80;;;;;;4809009;29;20495;-85
2022/04/01 10:29:33;;;;;;;3.17;2.97;;;5.60;93.70;;;;;;4824569;29;20470;-86
2022/04/01 10:32:51;;;;;;;3.90;3.50;;;5.70;93.00;;;;;;4884480;29;20526;-86
2022/04/01 10:35:42;;;;;;;4.33;3.97;;;5.60;93.40;;;;;;4888357;29;20587;-85
2022/04/01 10:38:34;;;;;;;3.53;3.23;;;5.60;93.20;;;;;;4880633;29;20469;-86
2022/04/01 10:41:30;;;;;;;3.80;3.60;;;5.70;93.40;;;;;;4933092;28;20461;-86
2022/04/01 10:44:21;;;;;;;4.20;3.90;;;5.80;93.00;;;;;;4946956;28;20484;-84
2022/04/01 10:54:21;;;;;;;3.37;3.07;;;5.90;92.50;;;;;;4973615;28;20478;-87
2022/04/01 11:05:10;;;;;;;3.33;3.00;;;5.90;91.00;;;;;;4825369;29;20492;-87
2022/04/01 11:16:39;;;;;;;3.07;2.87;;;5.90;90.60;;;;;;4844150;29;20474;-86
2022/04/01 11:23:38;;;;;;;3.67;3.30;;;6.00;88.00;;;;;;4822987;29;22560;-87
2022/04/01 11:27:35;;;;;;;;;;;;;;;;;;;;;
2022/04/01 11:30:53;;;;;;;;;;;;;;;;;;;;;
2022/04/01 11:41:37;;;;;;;4.00;3.07;;;5.90;89.50;;;;;;4871127;29;20444;-86
2022/04/01 11:45:11;;;;;;;4.00;3.60;;;5.80;90.40;;;;;;4875548;29;20536;-85
2022/04/01 11:49:04;;;;;;;3.50;2.80;;;5.80;90.50;;;;;;4866186;29;20529;-86
2022/04/01 12:00:11;;;;;;;2.67;2.57;;;5.80;89.90;;;;;;4909971;29;20485;-85
2022/04/01 12:03:30;;;;;;;2.93;2.70;;;6.00;89.50;;;;;;4891391;29;20833;-86
2022/04/01 12:09:25;;;;;;;2.40;2.20;;;5.90;90.10;;;;;;4966085;28;20476;-86
2022/04/01 12:12:38;;;;;;;2.87;2.67;;;6.00;90.40;;;;;;4962166;28;20500;-89
2022/04/01 12:15:59;;;;;;;;;;;;;;;;;;;;;
2022/04/01 12:22:35;;;;;;;3.17;2.63;;;5.70;90.60;;;;;;4928160;29;20458;-85
2022/04/01 12:25:30;;;;;;;3.17;2.97;;;5.60;90.50;;;;;;4935770;28;20487;-87
2022/04/01 12:28:26;;;;;;;3.20;2.90;;;5.60;91.00;;;;;;4965063;28;20479;-84
2022/04/01 12:31:23;;;;;;;5.53;3.30;;;5.60;91.20;;;;;;4980454;28;20539;-85
2022/04/01 12:34:23;;;;;;;3.27;2.97;;;5.60;91.20;;;;;;4971941;28;21185;-86
2022/04/01 12:37:19;;;;;;;3.33;3.13;;;5.60;90.90;;;;;;5086362;23;20523;-84
2022/04/01 12:40:15;;;;;;;3.13;2.93;;;5.70;90.80;;;;;;4965855;28;20460;-85
2022/04/01 12:42:59;;;;;;;2.70;2.50;;;5.60;90.70;;;;;;4963594;28;20563;-86
2022/04/01 12:46:33;;;;;;;3.20;3.00;;;5.80;90.10;;;;;;4962157;28;20503;-87
2022/04/01 12:53:20;;;;;;;3.37;3.10;;;6.00;90.00;;;;;;4867341;29;20527;-86
2022/04/01 12:56:43;;;;;;;3.70;3.43;;;6.10;88.50;;;;;;4885405;29;20543;-85
2022/04/01 13:00:00;;;;;;;3.10;2.90;;;6.20;88.70;;;;;;4892852;29;20843;-86
2022/04/01 13:03:14;;;;;;;3.13;2.93;;;6.10;89.40;;;;;;4890222;29;20472;-85
2022/04/01 13:06:17;;;;;;;3.53;3.23;;;6.10;90.10;;;;;;4864084;29;20531;-84
2022/04/01 13:12:59;;;;;;;3.23;2.93;;;6.20;88.10;;;;;;4801643;29;20460;-87
2022/04/01 13:15:58;;;;;;;3.40;3.10;;;6.30;89.30;;;;;;4801257;29;20487;-84
2022/04/01 13:18:53;;;;;;;4.10;3.10;;;6.20;89.00;;;;;;4785876;29;20955;-86
2022/04/01 13:22:20;;;;;;;3.70;3.40;;;6.20;88.20;;;;;;4866455;29;20535;-85
2022/04/01 13:29:35;;;;;;;3.13;2.93;;;6.10;89.00;;;;;;4809331;29;20511;-84
2022/04/01 13:37:38;;;;;;;4.00;3.30;;;6.40;89.40;;;;;;4751898;30;20517;-87
2022/04/01 13:44:22;;;;;;;3.67;2.90;;;6.40;90.40;;;;;;4806262;29;20467;-86
2022/04/01 13:47:31;;;;;;;4.23;3.10;;;6.40;90.40;;;;;;4970462;22;20510;-86
2022/04/01 13:50:20;;;;;;;5.10;2.50;;;6.20;88.80;;;;;;4933585;29;20501;-85
2022/04/01 13:56:08;;;;;;;4.87;3.20;;;6.00;91.40;;;;;;4914740;29;20493;-85
2022/04/01 13:59:17;;;;;;;3.83;3.53;;;6.10;91.90;;;;;;4920273;29;20449;-86
2022/04/01 14:06:37;;;;;;;;;;;;;;;;;;;;;
2022/04/01 14:09:25;;;;;;;3.60;3.30;;;6.10;93.40;;;;;;4884611;29;20539;-86
2022/04/01 14:20:16;;;;;;;3.97;3.67;;;6.00;94.10;;;;;;4994820;28;20457;-83
2022/04/01 14:27:16;;;;;;;3.57;3.33;;;6.00;94.30;;;;;;5002077;28;20443;-87
2022/04/01 14:35:02;;;;;;;4.20;3.80;;;6.10;95.70;;;;;;4924641;29;20477;-87
2022/04/01 14:38:14;;;;;;;;;;;;;;;;;;;;;
2022/04/01 14:41:56;;;;;;;4.70;4.30;;;5.70;97.70;;;;;;4918865;28;20459;-84
2022/04/01 14:44:49;;;;;;;3.63;3.33;;;5.50;98.10;;;;;;4943039;28;21283;-85
2022/04/01 14:47:40;;;;;;;4.80;4.40;;;5.60;98.70;;;;;;4946711;28;20476;-85
2022/04/01 14:53:38;;;;;;;3.47;3.17;;;5.70;99.20;;;;;;4947976;29;20460;-83
2022/04/01 14:56:44;;;;;;;4.20;3.80;;;5.50;99.30;;;;;;4934276;29;20606;-85
2022/04/01 14:59:41;;;;;;;5.13;3.90;;;5.50;99.30;;;;;;4930472;29;20594;-87
2022/04/01 15:02:37;;;;;;;4.40;4.00;;;5.50;99.50;;;;;;4931191;29;20469;-83
2022/04/01 15:05:31;;;;;;;4.13;3.70;;;5.40;99.70;;;;;;4948014;28;20503;-84
2022/04/01 15:09:02;;;;;;;4.10;3.70;;;5.40;99.90;;;;;;4875414;29;20467;-86
2022/04/01 15:11:48;;;;;;;5.10;4.30;;;5.50;99.80;;;;;;4873139;29;20468;-85
2022/04/01 15:14:50;;;;;;;4.47;4.07;;;5.50;99.90;;;;;;4873204;29;20464;-84
2022/04/01 15:17:45;;;;;;;4.93;4.30;;;5.60;99.70;;;;;;4966454;23;20512;-85
2022/04/01 15:20:41;;;;;;;4.77;4.37;;;5.20;99.90;;;;;;4954803;28;20477;-86
2022/04/01 15:23:35;;;;;;;5.30;4.80;;;5.50;99.20;;;;;;4934787;28;20620;-83
2022/04/01 15:26:38;;;;;;;4.30;3.90;;;5.30;99.90;;;;;;4941687;28;21257;-84
2022/04/01 15:29:45;;;;;;;5.60;5.10;;;5.30;99.90;;;;;;4960566;28;20475;-85
2022/04/01 15:32:52;;;;;;;5.90;4.50;;;5.30;99.90;;;;;;4927122;28;20549;-85
2022/04/01 15:35:39;;;;;;;7.37;6.67;;;5.40;99.90;;;;;;4959820;28;21062;-86
2022/04/01 15:38:13;;;;;;;6.90;5.97;;;5.40;99.90;;;;;;4943984;28;20460;-84
2022/04/01 15:41:09;;;;;;;6.57;5.97;;;5.40;99.90;;;;;;4955744;28;20539;-84
2022/04/01 15:43:48;;;;;;;6.23;5.63;;;5.50;99.90;;;;;;4970037;28;20471;-87
2022/04/01 15:46:45;;;;;;;7.53;6.73;;;5.30;99.90;;;;;;4944433;28;20484;-86
2022/04/01 15:52:21;;;;;;;7.07;6.40;;;5.40;99.90;;;;;;4951323;28;20974;-83
2022/04/01 15:54:52;;;;;;;8.40;7.60;;;5.30;99.90;;;;;;4947061;28;20461;-85
2022/04/01 15:57:47;;;;;;;7.50;6.77;;;5.40;99.90;;;;;;4948585;28;20683;-85
2022/04/01 16:00:24;;;;;;;6.83;6.13;;;5.30;99.90;;;;;;4947359;28;21005;-84
2022/04/01 16:03:13;;;;;;;8.13;6.40;;;5.40;99.90;;;;;;4944037;28;20535;-85
2022/04/01 16:05:55;;;;;;;6.53;5.90;;;5.20;99.90;;;;;;4945070;28;20543;-86
2022/04/01 16:08:41;;;;;;;5.70;5.20;;;5.20;99.90;;;;;;4948692;28;20472;-87
2022/04/01 16:11:54;;;;;;;6.27;5.67;;;5.20;99.90;;;;;;4957406;28;20541;-86
2022/04/01 16:14:34;;;;;;;6.33;5.10;;;5.00;99.90;;;;;;4946319;28;20469;-86
2022/04/01 16:17:12;;;;;;;5.13;4.53;;;5.10;99.90;;;;;;4944315;28;20488;-84
2022/04/01 16:20:02;;;;;;;4.23;3.93;;;5.20;99.90;;;;;;4960017;28;21049;-85
2022/04/01 16:22:36;;;;;;;6.10;4.67;;;5.20;99.90;;;;;;4961675;28;20528;-84
2022/04/01 16:25:36;;;;;;;4.67;3.57;;;5.20;99.90;;;;;;4965034;28;21073;-83
2022/04/01 16:28:38;;;;;;;4.07;3.20;;;5.30;99.90;;;;;;4946036;28;20476;-87
2022/04/01 16:32:13;;;;;;;4.50;3.50;;;5.30;99.90;;;;;;4952764;28;20460;-85
2022/04/01 16:35:10;;;;;;;5.13;3.60;;;5.20;99.90;;;;;;4966219;28;20458;-85
2022/04/01 16:38:08;;;;;;;3.00;2.77;;;5.30;99.90;;;;;;4964760;28;20447;-86
2022/04/01 16:44:44;;;;;;;4.27;3.63;;;5.30;99.20;;;;;;4911135;28;20478;-88
2022/04/01 16:51:43;;;;;;;;;;;;;;;;;;;;;
2022/04/01 16:55:17;;;;;;;5.93;4.17;;;5.10;99.90;;;;;;4944920;28;20457;-85
2022/04/01 16:58:17;;;;;;;5.83;4.17;;;5.40;99.60;;;;;;4942156;28;21027;-83
2022/04/01 17:01:03;;;;;;;5.33;4.83;;;5.20;99.90;;;;;;4942026;28;20469;-85
2022/04/01 17:03:42;;;;;;;9.80;5.10;;;5.20;99.90;;;;;;4941080;28;20469;-85
2022/04/01 17:13:13;;;;;;;8.17;5.87;;;5.30;99.90;;;;;;4955146;28;20783;-83
2022/04/01 17:16:28;;;;;;;9.93;6.33;;;5.20;99.90;;;;;;4955020;28;20486;-86
2022/04/01 17:19:13;;;;;;;8.00;7.10;;;4.90;99.90;;;;;;4944660;28;20555;-85
2022/04/01 17:22:02;;;;;;;8.53;7.63;;;4.80;99.90;;;;;;4934331;28;20476;-84
2022/04/01 17:24:48;;;;;;;12.87;7.60;;;5.00;99.90;;;;;;4947723;28;20457;-86
2022/04/01 17:27:47;;;;;;;7.40;6.73;;;4.90;99.90;;;;;;4947285;28;20492;-86
2022/04/01 17:30:41;;;;;;;6.50;5.90;;;5.00;99.90;;;;;;4945967;28;20488;-85
2022/04/01 17:33:19;;;;;;;6.87;5.63;;;4.90;99.90;;;;;;4959998;28;20473;-85
2022/04/01 17:36:08;;;;;;;6.83;5.37;;;4.90;99.90;;;;;;4979404;23;20546;-87
2022/04/01 17:38:55;;;;;;;5.87;5.27;;;5.00;99.90;;;;;;5005478;28;20452;-86
2022/04/01 17:41:50;;;;;;;6.30;5.80;;;4.90;99.90;;;;;;4989394;28;20506;-84
2022/04/01 17:44:59;;;;;;;6.10;5.47;;;4.80;99.90;;;;;;4987889;28;20454;-85
2022/04/01 17:47:41;;;;;;;7.13;6.43;;;4.80;99.90;;;;;;4962919;28;20555;-86